createdAt,value
2023-01-15T00:01:15.579Z,1.58
2023-01-15T00:06:22.709Z,1.58
2023-01-15T00:11:29.920Z,1.58
2023-01-15T00:16:37.159Z,1.58
2023-01-15T00:21:44.316Z,1.58
2023-01-15T00:26:51.516Z,1.58
2023-01-15T00:31:58.756Z,1.58
2023-01-15T00:37:06.012Z,0.74
2023-01-15T00:42:13.952Z,0.74
2023-01-15T00:47:21.169Z,0.74
2023-01-15T00:52:28.388Z,0.74
2023-01-15T00:57:35.618Z,0.74
2023-01-15T01:02:42.834Z,0.74
2023-01-15T01:07:49.980Z,0.74
2023-01-15T01:12:57.123Z,0.74
2023-01-15T01:18:04.342Z,0.74
2023-01-15T01:23:11.554Z,-1.35
2023-01-15T01:28:18.805Z,-0.10
2023-01-15T01:33:26.042Z,-0.72
2023-01-15T01:38:33.228Z,0.48
2023-01-15T01:43:40.435Z,-0.10
2023-01-15T01:48:47.688Z,-0.10
2023-01-15T01:53:54.914Z,0.48
2023-01-15T01:59:02.136Z,-0.10
2023-01-15T02:04:09.327Z,0.48
2023-01-15T02:09:16.541Z,0.48
2023-01-15T02:14:23.746Z,1.05
2023-01-15T02:19:30.941Z,1.05
2023-01-15T02:24:38.154Z,0.20
2023-01-15T02:29:45.362Z,0.20
2023-01-15T02:34:52.571Z,0.20
2023-01-15T02:39:59.784Z,0.20
2023-01-15T02:45:07.033Z,0.20
2023-01-15T02:50:14.178Z,0.20
2023-01-15T02:55:21.344Z,0.20
2023-01-15T03:00:28.497Z,0.75
2023-01-15T03:05:35.692Z,0.75
2023-01-15T03:10:42.886Z,0.75
2023-01-15T03:15:50.088Z,0.75
2023-01-15T03:20:58.877Z,0.20
2023-01-15T03:26:04.543Z,0.75
2023-01-15T03:31:11.815Z,0.20
2023-01-15T03:36:19.001Z,0.75
2023-01-15T03:41:26.248Z,0.75
2023-01-15T03:46:33.479Z,0.75
2023-01-15T03:51:40.645Z,0.75
2023-01-15T03:56:47.858Z,0.75
2023-01-15T04:01:55.151Z,0.75
2023-01-15T04:07:02.286Z,-0.11
2023-01-15T04:12:09.534Z,-0.11
2023-01-15T04:17:16.904Z,-0.11
2023-01-15T04:22:24.054Z,-0.11
2023-01-15T04:27:31.261Z,-0.11
2023-01-15T04:32:38.422Z,-0.11
2023-01-15T04:37:45.574Z,-0.11
2023-01-15T04:42:52.766Z,-0.11
2023-01-15T04:47:59.994Z,-0.11
2023-01-15T04:53:07.176Z,-0.11
2023-01-15T04:58:14.375Z,-0.11
2023-01-15T05:03:21.609Z,-0.11
2023-01-15T05:08:28.811Z,-0.11
2023-01-15T05:13:35.999Z,-0.11
2023-01-15T05:18:43.240Z,0.41
2023-01-15T05:23:50.430Z,0.41
2023-01-15T05:28:57.561Z,0.41
2023-01-15T05:34:04.724Z,0.41
2023-01-15T05:39:11.929Z,0.41
2023-01-15T05:44:19.133Z,0.41
2023-01-15T05:49:26.354Z,0.41
2023-01-15T05:54:33.614Z,0.41
2023-01-15T05:59:40.885Z,0.41
2023-01-15T06:04:48.071Z,0.41
2023-01-15T06:09:55.254Z,0.41
2023-01-15T06:15:02.496Z,0.41
2023-01-15T06:20:09.675Z,0.41
2023-01-15T06:25:16.822Z,0.41
2023-01-15T06:30:23.978Z,0.41
2023-01-15T06:35:31.170Z,0.41
2023-01-15T06:40:38.376Z,0.41
2023-01-15T06:45:45.597Z,0.41
2023-01-15T06:50:52.781Z,0.41
2023-01-15T06:55:59.990Z,0.41
2023-01-15T07:01:07.313Z,0.41
2023-01-15T07:06:14.370Z,0.41
2023-01-15T07:11:21.637Z,0.41
2023-01-15T07:16:28.913Z,0.41
2023-01-15T07:21:36.003Z,0.41
2023-01-15T07:26:43.222Z,0.41
2023-01-15T07:31:50.453Z,0.41
2023-01-15T07:36:57.679Z,0.41
2023-01-15T07:42:04.894Z,-0.44
2023-01-15T07:47:12.073Z,-0.44
2023-01-15T07:52:19.277Z,-0.44
2023-01-15T07:57:26.464Z,-0.44
2023-01-15T08:02:33.658Z,-0.44
2023-01-15T08:07:40.890Z,-0.44
2023-01-15T08:12:48.073Z,-0.44
2023-01-15T08:17:55.282Z,-0.44
2023-01-15T08:23:02.421Z,-0.44
2023-01-15T08:28:09.572Z,-0.44
2023-01-15T08:33:16.757Z,-0.44
2023-01-15T08:38:23.993Z,-0.44
2023-01-15T08:43:31.192Z,-0.44
2023-01-15T08:48:38.422Z,-0.44
2023-01-15T08:53:45.607Z,-0.44
2023-01-15T08:58:52.796Z,-0.44
2023-01-15T09:04:00.016Z,-0.44
2023-01-15T09:09:07.165Z,0.06
2023-01-15T09:14:59.253Z,0.06
2023-01-15T09:19:21.626Z,0.06
2023-01-15T09:24:28.871Z,0.06
2023-01-15T09:29:35.998Z,0.06
2023-01-15T09:34:43.235Z,-0.44
2023-01-15T09:39:50.433Z,0.06
2023-01-15T09:44:57.706Z,0.06
2023-01-15T09:50:04.953Z,-0.44
2023-01-15T09:55:12.137Z,0.06
2023-01-15T10:00:19.387Z,0.54
2023-01-15T10:05:26.608Z,1.47
2023-01-15T10:10:33.801Z,1.89
2023-01-15T10:15:41.054Z,1.89
2023-01-15T10:20:48.204Z,2.77
2023-01-15T10:25:55.368Z,1.92
2023-01-15T10:31:02.621Z,2.77
2023-01-15T10:36:09.795Z,1.92
2023-01-15T10:41:17.046Z,1.92
2023-01-15T10:46:24.343Z,2.79
2023-01-15T10:51:31.531Z,2.79
2023-01-15T10:56:38.748Z,2.34
2023-01-15T11:01:46.097Z,2.34
2023-01-15T11:06:53.175Z,2.34
2023-01-15T11:12:00.376Z,2.34
2023-01-15T11:17:07.586Z,2.34
2023-01-15T11:22:14.858Z,2.34
2023-01-15T11:27:22.048Z,2.34
2023-01-15T11:32:29.251Z,2.34
2023-01-15T11:37:36.423Z,2.34
2023-01-15T11:42:43.667Z,1.88
2023-01-15T11:47:51.097Z,1.88
2023-01-15T11:52:58.290Z,1.88
2023-01-15T11:58:05.480Z,1.88
2023-01-15T12:03:12.678Z,1.41
2023-01-15T12:08:19.904Z,1.41
2023-01-15T12:13:27.141Z,1.41
2023-01-15T12:18:34.299Z,2.27
2023-01-15T12:23:41.498Z,2.27
2023-01-15T12:28:48.706Z,2.27
2023-01-15T12:33:55.925Z,2.27
2023-01-15T12:39:03.162Z,1.78
2023-01-15T12:44:10.429Z,1.78
2023-01-15T12:49:17.652Z,1.78
2023-01-15T12:54:24.837Z,1.78
2023-01-15T12:59:32.076Z,1.78
2023-01-15T13:04:39.368Z,1.27
2023-01-15T13:09:46.570Z,1.27
2023-01-15T13:14:53.809Z,1.78
2023-01-15T13:20:01.066Z,1.27
2023-01-15T13:25:08.369Z,1.27
2023-01-15T13:30:15.972Z,1.27
2023-01-15T13:35:23.192Z,1.27
2023-01-15T13:40:30.440Z,1.27
2023-01-15T13:45:37.816Z,1.27
2023-01-15T13:50:44.922Z,1.27
2023-01-15T13:55:52.150Z,1.60
2023-01-15T14:00:59.444Z,2.13
2023-01-15T14:06:06.519Z,2.13
2023-01-15T14:11:13.703Z,2.13
2023-01-15T14:16:21.001Z,2.13
2023-01-15T14:21:28.214Z,2.13
2023-01-15T14:26:35.374Z,2.13
2023-01-15T14:31:42.864Z,2.13
2023-01-15T14:36:50.054Z,2.13
2023-01-15T14:41:57.208Z,2.13
2023-01-15T14:47:04.415Z,2.13
2023-01-15T14:52:11.691Z,2.13
2023-01-15T14:57:18.877Z,2.13
2023-01-15T15:02:26.380Z,2.13
2023-01-15T15:07:33.589Z,2.64
2023-01-15T15:12:41.303Z,2.64
2023-01-15T15:17:48.675Z,2.13
2023-01-15T15:22:55.841Z,2.13
2023-01-15T15:28:03.054Z,2.98
2023-01-15T15:33:10.240Z,2.98
2023-01-15T15:38:17.525Z,2.98
2023-01-15T15:43:24.861Z,2.98
2023-01-15T15:48:32.041Z,3.50
2023-01-15T15:53:39.248Z,2.98
2023-01-15T15:58:46.760Z,2.98
2023-01-15T16:03:54.278Z,3.50
2023-01-15T16:09:01.621Z,3.50
2023-01-15T16:14:08.799Z,2.98
2023-01-15T16:19:16.193Z,2.98
2023-01-15T16:24:24.320Z,2.98
2023-01-15T16:29:31.738Z,2.98
2023-01-15T16:34:39.342Z,2.98
2023-01-15T16:39:46.981Z,2.98
2023-01-15T16:44:54.329Z,3.84
2023-01-15T16:50:01.884Z,3.84
2023-01-15T16:55:09.401Z,3.84
2023-01-15T17:00:17.108Z,3.84
2023-01-15T17:05:24.948Z,3.84
2023-01-15T17:10:32.440Z,3.84
2023-01-15T17:15:40.099Z,3.84
2023-01-15T17:20:47.673Z,3.84
2023-01-15T17:25:55.297Z,3.84
2023-01-15T17:31:02.713Z,3.84
2023-01-15T17:36:11.076Z,3.84
2023-01-15T17:41:18.839Z,3.84
2023-01-15T17:46:26.786Z,3.84
2023-01-15T17:51:34.381Z,3.84
2023-01-15T17:56:42.096Z,3.84
2023-01-15T18:01:49.795Z,3.30
2023-01-15T18:06:57.058Z,3.30
2023-01-15T18:12:04.534Z,3.84
2023-01-15T18:17:12.165Z,3.84
2023-01-15T18:22:20.265Z,3.84
2023-01-15T18:27:27.683Z,3.30
2023-01-15T18:32:35.299Z,3.30
2023-01-15T18:37:42.733Z,3.30
2023-01-15T18:42:50.220Z,3.30
2023-01-15T18:47:57.591Z,3.30
2023-01-15T18:53:05.153Z,3.30
2023-01-15T18:58:12.876Z,3.30
2023-01-15T19:03:20.476Z,3.30
2023-01-15T19:08:28.088Z,3.30
2023-01-15T19:13:35.705Z,3.30
2023-01-15T19:18:43.414Z,3.30
2023-01-15T19:23:51.139Z,3.30
2023-01-15T19:28:58.506Z,3.30
2023-01-15T19:34:31.732Z,3.30
2023-01-15T19:39:12.857Z,3.30
2023-01-15T19:44:20.370Z,3.30
2023-01-15T19:49:27.976Z,4.15
2023-01-15T19:54:35.619Z,4.15
2023-01-15T19:59:43.305Z,4.15
2023-01-15T20:04:50.935Z,3.30
2023-01-15T20:09:58.550Z,3.30
2023-01-15T20:15:06.254Z,3.30
2023-01-15T20:20:13.666Z,3.30
2023-01-15T20:25:20.895Z,4.15
2023-01-15T20:30:28.385Z,4.15
2023-01-15T20:35:35.735Z,4.15
2023-01-15T20:40:43.200Z,4.15
2023-01-15T20:45:50.885Z,4.15
2023-01-15T20:50:58.447Z,3.59
2023-01-15T20:56:06.041Z,3.59
2023-01-15T21:01:13.503Z,3.59
2023-01-15T21:06:20.609Z,3.59
2023-01-15T21:11:27.866Z,4.15
2023-01-15T21:16:35.451Z,3.59
2023-01-15T21:21:42.997Z,3.59
2023-01-15T21:26:51.530Z,3.59
2023-01-15T21:31:58.891Z,3.59
2023-01-15T21:37:06.087Z,3.59
2023-01-15T21:42:14.038Z,3.59
2023-01-15T21:47:21.267Z,3.59
2023-01-15T21:52:28.446Z,3.59
2023-01-15T21:57:35.599Z,3.59
2023-01-15T22:02:42.797Z,3.59
2023-01-15T22:07:49.993Z,3.59
2023-01-15T22:12:57.201Z,3.59
2023-01-15T22:18:04.438Z,3.59
2023-01-15T22:23:11.710Z,3.59
2023-01-15T22:28:18.925Z,3.59
2023-01-15T22:33:26.097Z,3.59
2023-01-15T22:38:33.297Z,3.59
2023-01-15T22:43:40.607Z,3.59
2023-01-15T22:48:47.914Z,3.59
2023-01-15T22:53:55.232Z,4.44
2023-01-15T22:59:02.445Z,3.59
2023-01-15T23:04:09.684Z,4.44
2023-01-15T23:09:16.859Z,3.59
2023-01-15T23:14:24.061Z,3.59
2023-01-15T23:19:31.291Z,3.59
2023-01-15T23:24:38.472Z,4.44
2023-01-15T23:29:45.678Z,4.44
2023-01-15T23:34:52.898Z,4.44
2023-01-15T23:40:00.173Z,4.44
2023-01-15T23:45:07.329Z,4.44
2023-01-15T23:50:14.563Z,4.44
2023-01-15T23:55:21.724Z,4.44
